sensor_id;sensor_type;location;lat;lon;timestamp;temperature;humidity
20446;DHT22;10382;49.140;9.234;2023-02-01T00:00:13;5.80;99.90
20446;DHT22;10382;49.140;9.234;2023-02-01T00:02:40;5.90;99.90
20446;DHT22;10382;49.140;9.234;2023-02-01T00:05:07;5.90;99.90
20446;DHT22;10382;49.140;9.234;2023-02-01T00:07:35;5.90;99.90
20446;DHT22;10382;49.140;9.234;2023-02-01T00:10:03;5.80;99.90
20446;DHT22;10382;49.140;9.234;2023-02-01T00:12:30;5.80;99.90
20446;DHT22;10382;49.140;9.234;2023-02-01T00:14:57;5.80;99.90
20446;DHT22;10382;49.140;9.234;2023-02-01T00:17:25;5.70;99.90
20446;DHT22;10382;49.140;9.234;2023-02-01T00:19:52;5.80;99.90
20446;DHT22;10382;49.140;9.234;2023-02-01T00:22:19;5.80;99.90
20446;DHT22;10382;49.140;9.234;2023-02-01T00:24:46;5.80;99.90
20446;DHT22;10382;49.140;9.234;2023-02-01T00:27:12;5.80;99.90
20446;DHT22;10382;49.140;9.234;2023-02-01T00:29:45;5.70;99.90
20446;DHT22;10382;49.140;9.234;2023-02-01T00:32:12;5.70;99.90
20446;DHT22;10382;49.140;9.234;2023-02-01T00:34:41;5.80;99.90
20446;DHT22;10382;49.140;9.234;2023-02-01T00:37:08;5.80;99.90
20446;DHT22;10382;49.140;9.234;2023-02-01T00:39:34;5.80;99.90
20446;DHT22;10382;49.140;9.234;2023-02-01T00:42:01;5.80;99.90
20446;DHT22;10382;49.140;9.234;2023-02-01T00:44:29;5.80;99.90
20446;DHT22;10382;49.140;9.234;2023-02-01T00:46:59;5.80;99.90
20446;DHT22;10382;49.140;9.234;2023-02-01T00:49:26;5.80;99.90
20446;DHT22;10382;49.140;9.234;2023-02-01T00:51:55;5.80;99.90
20446;DHT22;10382;49.140;9.234;2023-02-01T00:54:22;5.90;99.90
20446;DHT22;10382;49.140;9.234;2023-02-01T00:56:49;5.90;99.90
20446;DHT22;10382;49.140;9.234;2023-02-01T00:59:16;6.00;99.90
20446;DHT22;10382;49.140;9.234;2023-02-01T01:01:43;6.00;99.90
20446;DHT22;10382;49.140;9.234;2023-02-01T01:04:09;6.00;99.90
20446;DHT22;10382;49.140;9.234;2023-02-01T01:06:36;6.10;99.90
20446;DHT22;10382;49.140;9.234;2023-02-01T01:09:07;6.10;99.90
20446;DHT22;10382;49.140;9.234;2023-02-01T01:11:35;6.10;99.90
20446;DHT22;10382;49.140;9.234;2023-02-01T01:14:03;6.20;99.90
20446;DHT22;10382;49.140;9.234;2023-02-01T01:16:31;6.30;99.90
20446;DHT22;10382;49.140;9.234;2023-02-01T01:18:59;6.30;99.90
20446;DHT22;10382;49.140;9.234;2023-02-01T01:21:26;6.30;99.90
20446;DHT22;10382;49.140;9.234;2023-02-01T01:23:53;6.30;99.90
20446;DHT22;10382;49.140;9.234;2023-02-01T01:26:23;6.30;99.90
20446;DHT22;10382;49.140;9.234;2023-02-01T01:28:51;6.30;99.90
20446;DHT22;10382;49.140;9.234;2023-02-01T01:31:19;6.30;99.90
20446;DHT22;10382;49.140;9.234;2023-02-01T01:33:51;6.40;99.90
20446;DHT22;10382;49.140;9.234;2023-02-01T01:36:18;6.40;99.90
20446;DHT22;10382;49.140;9.234;2023-02-01T01:38:45;6.40;99.90
20446;DHT22;10382;49.140;9.234;2023-02-01T01:41:15;6.30;99.90
20446;DHT22;10382;49.140;9.234;2023-02-01T01:43:52;6.30;99.90
20446;DHT22;10382;49.140;9.234;2023-02-01T01:46:20;6.30;99.90
20446;DHT22;10382;49.140;9.234;2023-02-01T01:48:51;6.40;99.90
20446;DHT22;10382;49.140;9.234;2023-02-01T01:51:21;6.40;99.90
20446;DHT22;10382;49.140;9.234;2023-02-01T01:53:55;6.50;99.90
20446;DHT22;10382;49.140;9.234;2023-02-01T01:56:25;6.50;99.90
20446;DHT22;10382;49.140;9.234;2023-02-01T01:58:55;6.50;99.90
20446;DHT22;10382;49.140;9.234;2023-02-01T02:01:22;6.30;99.90
20446;DHT22;10382;49.140;9.234;2023-02-01T02:03:50;6.30;99.90
20446;DHT22;10382;49.140;9.234;2023-02-01T02:06:26;6.10;99.90
20446;DHT22;10382;49.140;9.234;2023-02-01T02:08:54;6.10;99.90
20446;DHT22;10382;49.140;9.234;2023-02-01T02:11:21;6.20;99.90
20446;DHT22;10382;49.140;9.234;2023-02-01T02:13:50;6.20;99.90
20446;DHT22;10382;49.140;9.234;2023-02-01T02:16:32;6.20;99.90
20446;DHT22;10382;49.140;9.234;2023-02-01T02:28:08;6.40;99.90
20446;DHT22;10382;49.140;9.234;2023-02-01T02:33:54;6.40;99.90
20446;DHT22;10382;49.140;9.234;2023-02-01T02:36:30;6.30;99.90
20446;DHT22;10382;49.140;9.234;2023-02-01T02:39:04;6.30;99.90
20446;DHT22;10382;49.140;9.234;2023-02-01T02:41:40;6.20;99.90
20446;DHT22;10382;49.140;9.234;2023-02-01T02:44:33;6.20;99.90
20446;DHT22;10382;49.140;9.234;2023-02-01T02:47:24;6.20;99.90
20446;DHT22;10382;49.140;9.234;2023-02-01T02:50:11;6.10;99.90
20446;DHT22;10382;49.140;9.234;2023-02-01T02:53:02;6.10;99.90
20446;DHT22;10382;49.140;9.234;2023-02-01T02:55:50;6.10;99.90
20446;DHT22;10382;49.140;9.234;2023-02-01T02:58:32;6.00;99.90
20446;DHT22;10382;49.140;9.234;2023-02-01T03:01:16;6.00;99.90
20446;DHT22;10382;49.140;9.234;2023-02-01T03:04:01;6.10;99.90
20446;DHT22;10382;49.140;9.234;2023-02-01T03:06:36;6.10;99.90
20446;DHT22;10382;49.140;9.234;2023-02-01T03:09:08;6.10;99.90
20446;DHT22;10382;49.140;9.234;2023-02-01T03:11:37;6.10;99.90
20446;DHT22;10382;49.140;9.234;2023-02-01T03:14:41;6.10;99.90
20446;DHT22;10382;49.140;9.234;2023-02-01T03:17:13;6.20;99.90
20446;DHT22;10382;49.140;9.234;2023-02-01T03:19:43;6.30;99.90
20446;DHT22;10382;49.140;9.234;2023-02-01T03:22:18;6.40;99.90
20446;DHT22;10382;49.140;9.234;2023-02-01T03:24:48;6.40;99.90
20446;DHT22;10382;49.140;9.234;2023-02-01T03:27:19;6.40;99.90
20446;DHT22;10382;49.140;9.234;2023-02-01T03:29:49;6.30;99.90
20446;DHT22;10382;49.140;9.234;2023-02-01T03:32:17;6.40;99.90
20446;DHT22;10382;49.140;9.234;2023-02-01T03:34:45;6.40;99.90
20446;DHT22;10382;49.140;9.234;2023-02-01T03:37:16;6.40;99.90
20446;DHT22;10382;49.140;9.234;2023-02-01T03:39:47;6.40;99.90
20446;DHT22;10382;49.140;9.234;2023-02-01T03:42:20;6.50;99.90
20446;DHT22;10382;49.140;9.234;2023-02-01T03:44:51;6.50;99.90
20446;DHT22;10382;49.140;9.234;2023-02-01T03:47:23;6.50;99.90
20446;DHT22;10382;49.140;9.234;2023-02-01T03:49:53;6.50;99.90
20446;DHT22;10382;49.140;9.234;2023-02-01T03:52:27;6.50;99.90
20446;DHT22;10382;49.140;9.234;2023-02-01T03:54:55;6.50;99.90
20446;DHT22;10382;49.140;9.234;2023-02-01T03:57:26;6.50;99.90
20446;DHT22;10382;49.140;9.234;2023-02-01T03:59:53;6.40;99.90
20446;DHT22;10382;49.140;9.234;2023-02-01T04:02:20;6.40;99.90
20446;DHT22;10382;49.140;9.234;2023-02-01T04:04:47;6.40;99.90
20446;DHT22;10382;49.140;9.234;2023-02-01T04:07:14;6.30;99.90
20446;DHT22;10382;49.140;9.234;2023-02-01T04:09:44;6.40;99.90
20446;DHT22;10382;49.140;9.234;2023-02-01T04:12:12;6.50;99.90
20446;DHT22;10382;49.140;9.234;2023-02-01T04:14:40;6.60;99.90
20446;DHT22;10382;49.140;9.234;2023-02-01T04:17:08;6.70;99.90
20446;DHT22;10382;49.140;9.234;2023-02-01T04:19:35;6.70;99.90
20446;DHT22;10382;49.140;9.234;2023-02-01T04:22:03;6.80;99.90
20446;DHT22;10382;49.140;9.234;2023-02-01T04:24:30;6.70;99.90
20446;DHT22;10382;49.140;9.234;2023-02-01T04:26:59;6.70;99.90
20446;DHT22;10382;49.140;9.234;2023-02-01T04:29:28;6.60;99.90
20446;DHT22;10382;49.140;9.234;2023-02-01T04:31:56;6.60;99.90
20446;DHT22;10382;49.140;9.234;2023-02-01T04:34:23;6.60;99.90
20446;DHT22;10382;49.140;9.234;2023-02-01T04:36:50;6.50;99.90
20446;DHT22;10382;49.140;9.234;2023-02-01T04:39:18;6.50;99.90
20446;DHT22;10382;49.140;9.234;2023-02-01T04:41:45;6.50;99.90
20446;DHT22;10382;49.140;9.234;2023-02-01T04:44:15;6.40;99.90
20446;DHT22;10382;49.140;9.234;2023-02-01T04:46:44;6.40;99.90
20446;DHT22;10382;49.140;9.234;2023-02-01T04:49:12;6.30;99.90
20446;DHT22;10382;49.140;9.234;2023-02-01T04:51:40;6.30;99.90
20446;DHT22;10382;49.140;9.234;2023-02-01T04:54:09;6.30;99.90
20446;DHT22;10382;49.140;9.234;2023-02-01T04:56:37;6.30;99.90
20446;DHT22;10382;49.140;9.234;2023-02-01T04:59:05;6.30;99.90
20446;DHT22;10382;49.140;9.234;2023-02-01T05:01:34;6.30;99.90
20446;DHT22;10382;49.140;9.234;2023-02-01T05:04:01;6.30;99.90
20446;DHT22;10382;49.140;9.234;2023-02-01T05:06:29;6.20;99.90
20446;DHT22;10382;49.140;9.234;2023-02-01T05:08:56;6.30;99.90
20446;DHT22;10382;49.140;9.234;2023-02-01T05:11:23;6.30;99.90
20446;DHT22;10382;49.140;9.234;2023-02-01T05:14:07;6.30;99.90
20446;DHT22;10382;49.140;9.234;2023-02-01T05:16:35;6.30;99.90
20446;DHT22;10382;49.140;9.234;2023-02-01T05:19:02;6.30;99.90
20446;DHT22;10382;49.140;9.234;2023-02-01T05:21:29;6.20;99.90
20446;DHT22;10382;49.140;9.234;2023-02-01T05:23:56;6.20;99.90
20446;DHT22;10382;49.140;9.234;2023-02-01T05:26:42;6.20;99.90
20446;DHT22;10382;49.140;9.234;2023-02-01T05:29:09;6.20;99.90
20446;DHT22;10382;49.140;9.234;2023-02-01T05:31:38;6.20;99.90
20446;DHT22;10382;49.140;9.234;2023-02-01T05:34:05;6.30;99.90
20446;DHT22;10382;49.140;9.234;2023-02-01T05:36:32;6.30;99.90
20446;DHT22;10382;49.140;9.234;2023-02-01T05:38:59;6.40;99.90
20446;DHT22;10382;49.140;9.234;2023-02-01T05:41:26;6.40;99.90
20446;DHT22;10382;49.140;9.234;2023-02-01T05:43:53;6.40;99.90
20446;DHT22;10382;49.140;9.234;2023-02-01T05:46:20;6.40;99.90
20446;DHT22;10382;49.140;9.234;2023-02-01T05:48:48;6.30;99.90
20446;DHT22;10382;49.140;9.234;2023-02-01T05:51:15;6.30;99.90
20446;DHT22;10382;49.140;9.234;2023-02-01T05:53:41;6.30;99.90
20446;DHT22;10382;49.140;9.234;2023-02-01T05:56:08;6.30;99.90
20446;DHT22;10382;49.140;9.234;2023-02-01T05:58:35;6.30;99.90
20446;DHT22;10382;49.140;9.234;2023-02-01T06:01:03;6.30;99.90
20446;DHT22;10382;49.140;9.234;2023-02-01T06:03:30;6.30;99.90
20446;DHT22;10382;49.140;9.234;2023-02-01T06:05:58;6.30;99.90
20446;DHT22;10382;49.140;9.234;2023-02-01T06:08:26;6.30;99.90
20446;DHT22;10382;49.140;9.234;2023-02-01T06:10:57;6.30;99.90
20446;DHT22;10382;49.140;9.234;2023-02-01T06:13:24;6.20;99.90
20446;DHT22;10382;49.140;9.234;2023-02-01T06:15:51;6.20;99.90
20446;DHT22;10382;49.140;9.234;2023-02-01T06:18:18;6.10;99.90
20446;DHT22;10382;49.140;9.234;2023-02-01T06:20:51;6.10;99.90
20446;DHT22;10382;49.140;9.234;2023-02-01T06:23:19;6.10;99.90
20446;DHT22;10382;49.140;9.234;2023-02-01T06:25:50;6.10;99.90
20446;DHT22;10382;49.140;9.234;2023-02-01T06:28:17;6.10;99.90
20446;DHT22;10382;49.140;9.234;2023-02-01T06:30:44;6.10;99.90
20446;DHT22;10382;49.140;9.234;2023-02-01T06:33:12;6.10;99.90
20446;DHT22;10382;49.140;9.234;2023-02-01T06:35:40;6.00;99.90
20446;DHT22;10382;49.140;9.234;2023-02-01T06:38:08;6.00;99.90
20446;DHT22;10382;49.140;9.234;2023-02-01T06:40:36;5.90;99.90
20446;DHT22;10382;49.140;9.234;2023-02-01T06:43:03;5.90;99.90
20446;DHT22;10382;49.140;9.234;2023-02-01T06:45:30;5.90;99.90
20446;DHT22;10382;49.140;9.234;2023-02-01T06:47:58;5.90;99.90
20446;DHT22;10382;49.140;9.234;2023-02-01T06:50:25;5.90;99.90
20446;DHT22;10382;49.140;9.234;2023-02-01T06:52:52;5.90;99.90
20446;DHT22;10382;49.140;9.234;2023-02-01T06:55:19;6.00;99.90
20446;DHT22;10382;49.140;9.234;2023-02-01T06:57:47;6.00;99.90
20446;DHT22;10382;49.140;9.234;2023-02-01T07:00:14;6.10;99.90
20446;DHT22;10382;49.140;9.234;2023-02-01T07:02:41;6.00;99.90
20446;DHT22;10382;49.140;9.234;2023-02-01T07:05:09;6.10;99.90
20446;DHT22;10382;49.140;9.234;2023-02-01T07:07:36;6.10;99.90
20446;DHT22;10382;49.140;9.234;2023-02-01T07:10:04;6.10;99.90
20446;DHT22;10382;49.140;9.234;2023-02-01T07:12:31;6.10;99.90
20446;DHT22;10382;49.140;9.234;2023-02-01T07:14:59;6.10;99.90
20446;DHT22;10382;49.140;9.234;2023-02-01T07:17:27;6.20;99.90
20446;DHT22;10382;49.140;9.234;2023-02-01T07:19:54;6.20;99.90
20446;DHT22;10382;49.140;9.234;2023-02-01T07:22:23;6.20;99.90
20446;DHT22;10382;49.140;9.234;2023-02-01T07:24:49;6.10;99.90
20446;DHT22;10382;49.140;9.234;2023-02-01T07:27:16;6.20;99.90
20446;DHT22;10382;49.140;9.234;2023-02-01T07:29:43;6.20;99.90
20446;DHT22;10382;49.140;9.234;2023-02-01T07:32:11;6.20;99.90
20446;DHT22;10382;49.140;9.234;2023-02-01T07:34:38;6.20;99.90
20446;DHT22;10382;49.140;9.234;2023-02-01T07:37:05;6.20;99.90
20446;DHT22;10382;49.140;9.234;2023-02-01T07:39:32;6.30;99.90
20446;DHT22;10382;49.140;9.234;2023-02-01T07:41:59;6.30;99.90
20446;DHT22;10382;49.140;9.234;2023-02-01T07:44:26;6.30;99.90
20446;DHT22;10382;49.140;9.234;2023-02-01T07:46:52;6.30;99.90
20446;DHT22;10382;49.140;9.234;2023-02-01T07:49:21;6.20;99.90
20446;DHT22;10382;49.140;9.234;2023-02-01T07:51:47;6.20;99.90
20446;DHT22;10382;49.140;9.234;2023-02-01T07:54:14;6.20;99.90
20446;DHT22;10382;49.140;9.234;2023-02-01T07:56:41;6.20;99.90
20446;DHT22;10382;49.140;9.234;2023-02-01T07:59:08;6.10;99.90
20446;DHT22;10382;49.140;9.234;2023-02-01T08:01:36;6.10;99.90
20446;DHT22;10382;49.140;9.234;2023-02-01T08:04:03;6.10;99.90
20446;DHT22;10382;49.140;9.234;2023-02-01T08:06:33;6.20;99.90
20446;DHT22;10382;49.140;9.234;2023-02-01T08:09:00;6.20;99.90
20446;DHT22;10382;49.140;9.234;2023-02-01T08:11:27;6.20;99.90
20446;DHT22;10382;49.140;9.234;2023-02-01T08:13:54;6.30;99.90
20446;DHT22;10382;49.140;9.234;2023-02-01T08:16:22;6.40;99.90
20446;DHT22;10382;49.140;9.234;2023-02-01T08:18:49;6.40;99.90
20446;DHT22;10382;49.140;9.234;2023-02-01T08:21:18;6.40;99.90
20446;DHT22;10382;49.140;9.234;2023-02-01T08:23:46;6.30;99.90
20446;DHT22;10382;49.140;9.234;2023-02-01T08:26:15;6.30;99.90
20446;DHT22;10382;49.140;9.234;2023-02-01T08:28:44;6.30;99.90
20446;DHT22;10382;49.140;9.234;2023-02-01T08:31:13;6.30;99.90
20446;DHT22;10382;49.140;9.234;2023-02-01T08:33:41;6.30;99.90
20446;DHT22;10382;49.140;9.234;2023-02-01T08:36:09;6.20;99.90
20446;DHT22;10382;49.140;9.234;2023-02-01T08:38:37;6.30;99.90
20446;DHT22;10382;49.140;9.234;2023-02-01T08:41:07;6.30;99.90
20446;DHT22;10382;49.140;9.234;2023-02-01T08:43:35;6.30;99.90
20446;DHT22;10382;49.140;9.234;2023-02-01T08:46:02;6.30;99.90
20446;DHT22;10382;49.140;9.234;2023-02-01T08:48:30;6.30;99.90
20446;DHT22;10382;49.140;9.234;2023-02-01T08:50:57;6.30;99.90
20446;DHT22;10382;49.140;9.234;2023-02-01T08:53:24;6.40;99.90
20446;DHT22;10382;49.140;9.234;2023-02-01T08:55:51;6.50;99.90
20446;DHT22;10382;49.140;9.234;2023-02-01T08:58:19;6.60;99.90
20446;DHT22;10382;49.140;9.234;2023-02-01T09:00:47;6.60;99.90
20446;DHT22;10382;49.140;9.234;2023-02-01T09:03:15;6.70;99.90
20446;DHT22;10382;49.140;9.234;2023-02-01T09:05:42;6.70;99.90
20446;DHT22;10382;49.140;9.234;2023-02-01T09:08:09;6.80;99.90
20446;DHT22;10382;49.140;9.234;2023-02-01T09:10:38;6.80;99.90
20446;DHT22;10382;49.140;9.234;2023-02-01T09:13:05;6.80;99.90
20446;DHT22;10382;49.140;9.234;2023-02-01T09:15:33;6.90;99.90
20446;DHT22;10382;49.140;9.234;2023-02-01T09:18:01;6.90;99.90
20446;DHT22;10382;49.140;9.234;2023-02-01T09:20:28;7.10;99.90
20446;DHT22;10382;49.140;9.234;2023-02-01T09:22:55;7.20;99.90
20446;DHT22;10382;49.140;9.234;2023-02-01T09:25:22;7.30;99.90
20446;DHT22;10382;49.140;9.234;2023-02-01T09:27:49;7.40;99.90
20446;DHT22;10382;49.140;9.234;2023-02-01T09:30:16;7.50;99.90
20446;DHT22;10382;49.140;9.234;2023-02-01T09:32:44;7.50;99.90
20446;DHT22;10382;49.140;9.234;2023-02-01T09:35:11;7.40;99.90
20446;DHT22;10382;49.140;9.234;2023-02-01T09:37:38;7.40;99.90
20446;DHT22;10382;49.140;9.234;2023-02-01T09:40:06;7.30;99.90
20446;DHT22;10382;49.140;9.234;2023-02-01T09:42:46;7.20;99.90
20446;DHT22;10382;49.140;9.234;2023-02-01T09:45:21;7.30;99.90
20446;DHT22;10382;49.140;9.234;2023-02-01T09:47:55;7.20;99.90
20446;DHT22;10382;49.140;9.234;2023-02-01T09:50:30;7.20;99.90
20446;DHT22;10382;49.140;9.234;2023-02-01T09:53:02;7.20;99.90
20446;DHT22;10382;49.140;9.234;2023-02-01T09:55:34;7.20;99.90
20446;DHT22;10382;49.140;9.234;2023-02-01T09:58:05;7.20;99.90
20446;DHT22;10382;49.140;9.234;2023-02-01T10:00:35;7.20;99.90
20446;DHT22;10382;49.140;9.234;2023-02-01T10:03:04;7.30;99.90
20446;DHT22;10382;49.140;9.234;2023-02-01T10:05:43;7.20;99.90
20446;DHT22;10382;49.140;9.234;2023-02-01T10:08:19;7.20;99.90
20446;DHT22;10382;49.140;9.234;2023-02-01T10:10:52;7.20;99.90
20446;DHT22;10382;49.140;9.234;2023-02-01T10:13:34;7.20;99.90
20446;DHT22;10382;49.140;9.234;2023-02-01T10:16:17;7.20;99.90
20446;DHT22;10382;49.140;9.234;2023-02-01T10:19:01;7.20;99.90
20446;DHT22;10382;49.140;9.234;2023-02-01T10:21:43;7.30;99.90
20446;DHT22;10382;49.140;9.234;2023-02-01T10:24:32;7.40;99.90
20446;DHT22;10382;49.140;9.234;2023-02-01T10:27:04;7.40;99.90
20446;DHT22;10382;49.140;9.234;2023-02-01T10:29:37;7.40;99.90
20446;DHT22;10382;49.140;9.234;2023-02-01T10:32:15;7.20;99.90
20446;DHT22;10382;49.140;9.234;2023-02-01T10:34:46;7.30;99.90
20446;DHT22;10382;49.140;9.234;2023-02-01T10:37:23;7.30;99.90
20446;DHT22;10382;49.140;9.234;2023-02-01T10:39:53;7.20;99.90
20446;DHT22;10382;49.140;9.234;2023-02-01T10:42:25;7.30;99.90
20446;DHT22;10382;49.140;9.234;2023-02-01T10:44:54;7.30;99.90
20446;DHT22;10382;49.140;9.234;2023-02-01T10:47:22;7.40;99.90
20446;DHT22;10382;49.140;9.234;2023-02-01T10:49:55;7.40;99.90
20446;DHT22;10382;49.140;9.234;2023-02-01T10:52:31;7.40;99.90
20446;DHT22;10382;49.140;9.234;2023-02-01T10:55:28;7.40;99.90
20446;DHT22;10382;49.140;9.234;2023-02-01T10:57:57;7.40;99.90
20446;DHT22;10382;49.140;9.234;2023-02-01T11:00:24;7.40;99.90
20446;DHT22;10382;49.140;9.234;2023-02-01T11:02:52;7.50;99.90
20446;DHT22;10382;49.140;9.234;2023-02-01T11:05:20;7.50;99.90
20446;DHT22;10382;49.140;9.234;2023-02-01T11:07:49;7.60;99.90
20446;DHT22;10382;49.140;9.234;2023-02-01T11:10:35;7.70;99.90
20446;DHT22;10382;49.140;9.234;2023-02-01T11:13:02;7.80;99.90
20446;DHT22;10382;49.140;9.234;2023-02-01T11:15:29;7.80;99.90
20446;DHT22;10382;49.140;9.234;2023-02-01T11:18:14;7.80;99.90
20446;DHT22;10382;49.140;9.234;2023-02-01T11:20:42;7.80;99.90
20446;DHT22;10382;49.140;9.234;2023-02-01T11:23:15;7.80;99.90
20446;DHT22;10382;49.140;9.234;2023-02-01T11:25:48;7.60;99.90
20446;DHT22;10382;49.140;9.234;2023-02-01T11:28:16;7.40;99.90
20446;DHT22;10382;49.140;9.234;2023-02-01T11:30:45;7.40;99.90
20446;DHT22;10382;49.140;9.234;2023-02-01T11:33:16;7.30;99.90
20446;DHT22;10382;49.140;9.234;2023-02-01T11:35:45;7.20;99.90
20446;DHT22;10382;49.140;9.234;2023-02-01T11:38:22;7.20;99.90
20446;DHT22;10382;49.140;9.234;2023-02-01T11:40:49;7.20;99.90
20446;DHT22;10382;49.140;9.234;2023-02-01T11:43:22;7.20;99.90
20446;DHT22;10382;49.140;9.234;2023-02-01T11:45:55;7.10;99.90
20446;DHT22;10382;49.140;9.234;2023-02-01T11:48:24;7.20;99.90
20446;DHT22;10382;49.140;9.234;2023-02-01T11:51:01;7.30;99.90
20446;DHT22;10382;49.140;9.234;2023-02-01T11:53:50;7.30;99.90
20446;DHT22;10382;49.140;9.234;2023-02-01T11:56:25;7.30;99.90
20446;DHT22;10382;49.140;9.234;2023-02-01T11:59:06;7.30;99.90
20446;DHT22;10382;49.140;9.234;2023-02-01T12:01:52;7.20;99.90
20446;DHT22;10382;49.140;9.234;2023-02-01T12:04:44;7.20;99.90
20446;DHT22;10382;49.140;9.234;2023-02-01T12:07:19;7.30;99.90
20446;DHT22;10382;49.140;9.234;2023-02-01T12:09:57;7.30;99.90
20446;DHT22;10382;49.140;9.234;2023-02-01T12:12:34;7.30;99.90
20446;DHT22;10382;49.140;9.234;2023-02-01T12:15:26;7.20;99.90
20446;DHT22;10382;49.140;9.234;2023-02-01T12:18:18;7.20;99.90
20446;DHT22;10382;49.140;9.234;2023-02-01T12:21:02;7.30;99.90
20446;DHT22;10382;49.140;9.234;2023-02-01T12:23:43;7.40;99.90
20446;DHT22;10382;49.140;9.234;2023-02-01T12:26:27;7.40;99.90
20446;DHT22;10382;49.140;9.234;2023-02-01T12:29:11;7.40;99.90
20446;DHT22;10382;49.140;9.234;2023-02-01T12:34:57;7.40;99.90
20446;DHT22;10382;49.140;9.234;2023-02-01T12:37:37;7.40;99.90
20446;DHT22;10382;49.140;9.234;2023-02-01T12:40:21;7.30;99.90
20446;DHT22;10382;49.140;9.234;2023-02-01T12:42:56;7.30;99.90
20446;DHT22;10382;49.140;9.234;2023-02-01T12:45:30;7.30;99.90
20446;DHT22;10382;49.140;9.234;2023-02-01T12:48:07;7.40;99.90
20446;DHT22;10382;49.140;9.234;2023-02-01T12:50:43;7.40;99.90
20446;DHT22;10382;49.140;9.234;2023-02-01T12:53:17;7.50;99.90
20446;DHT22;10382;49.140;9.234;2023-02-01T12:55:51;7.50;99.90
20446;DHT22;10382;49.140;9.234;2023-02-01T12:58:23;7.50;99.90
20446;DHT22;10382;49.140;9.234;2023-02-01T13:00:57;7.50;99.90
20446;DHT22;10382;49.140;9.234;2023-02-01T13:03:38;7.40;99.90
20446;DHT22;10382;49.140;9.234;2023-02-01T13:06:10;7.50;99.90
20446;DHT22;10382;49.140;9.234;2023-02-01T13:08:45;7.50;99.90
20446;DHT22;10382;49.140;9.234;2023-02-01T13:11:17;7.50;99.90
20446;DHT22;10382;49.140;9.234;2023-02-01T13:13:53;7.50;99.90
20446;DHT22;10382;49.140;9.234;2023-02-01T13:16:26;7.60;99.90
20446;DHT22;10382;49.140;9.234;2023-02-01T13:19:00;7.60;99.90
20446;DHT22;10382;49.140;9.234;2023-02-01T13:21:32;7.60;99.90
20446;DHT22;10382;49.140;9.234;2023-02-01T13:24:00;7.50;99.90
20446;DHT22;10382;49.140;9.234;2023-02-01T13:26:28;7.60;99.90
20446;DHT22;10382;49.140;9.234;2023-02-01T13:28:58;7.70;99.90
20446;DHT22;10382;49.140;9.234;2023-02-01T13:31:52;7.80;99.90
20446;DHT22;10382;49.140;9.234;2023-02-01T13:34:49;8.00;99.90
20446;DHT22;10382;49.140;9.234;2023-02-01T13:37:52;8.00;99.90
20446;DHT22;10382;49.140;9.234;2023-02-01T13:40:39;8.00;99.90
20446;DHT22;10382;49.140;9.234;2023-02-01T13:43:13;8.10;99.90
20446;DHT22;10382;49.140;9.234;2023-02-01T13:45:46;8.30;99.90
20446;DHT22;10382;49.140;9.234;2023-02-01T13:48:21;8.30;99.90
20446;DHT22;10382;49.140;9.234;2023-02-01T13:50:52;8.30;99.90
20446;DHT22;10382;49.140;9.234;2023-02-01T13:53:25;8.10;99.90
20446;DHT22;10382;49.140;9.234;2023-02-01T13:55:58;8.00;99.90
20446;DHT22;10382;49.140;9.234;2023-02-01T13:58:35;8.00;99.90
20446;DHT22;10382;49.140;9.234;2023-02-01T14:07:20;7.70;99.90
20446;DHT22;10382;49.140;9.234;2023-02-01T14:09:48;7.70;99.90
20446;DHT22;10382;49.140;9.234;2023-02-01T14:12:44;7.60;99.90
20446;DHT22;10382;49.140;9.234;2023-02-01T14:15:20;7.50;99.90
20446;DHT22;10382;49.140;9.234;2023-02-01T14:17:48;7.60;99.90
20446;DHT22;10382;49.140;9.234;2023-02-01T14:20:46;7.60;99.90
20446;DHT22;10382;49.140;9.234;2023-02-01T14:23:28;7.60;99.90
20446;DHT22;10382;49.140;9.234;2023-02-01T14:26:08;7.60;99.90
20446;DHT22;10382;49.140;9.234;2023-02-01T14:28:40;7.50;99.90
20446;DHT22;10382;49.140;9.234;2023-02-01T14:34:00;7.50;99.90
20446;DHT22;10382;49.140;9.234;2023-02-01T14:36:39;7.40;99.90
20446;DHT22;10382;49.140;9.234;2023-02-01T14:39:26;7.30;99.90
20446;DHT22;10382;49.140;9.234;2023-02-01T14:41:56;7.20;99.90
20446;DHT22;10382;49.140;9.234;2023-02-01T14:44:30;7.30;99.90
20446;DHT22;10382;49.140;9.234;2023-02-01T14:47:29;7.30;99.90
20446;DHT22;10382;49.140;9.234;2023-02-01T14:50:18;7.40;99.90
20446;DHT22;10382;49.140;9.234;2023-02-01T14:52:51;7.30;99.90
20446;DHT22;10382;49.140;9.234;2023-02-01T14:55:24;7.30;99.90
20446;DHT22;10382;49.140;9.234;2023-02-01T14:57:54;7.30;99.90
20446;DHT22;10382;49.140;9.234;2023-02-01T15:00:25;7.30;99.90
20446;DHT22;10382;49.140;9.234;2023-02-01T15:02:55;7.40;99.90
20446;DHT22;10382;49.140;9.234;2023-02-01T15:05:27;7.40;99.90
20446;DHT22;10382;49.140;9.234;2023-02-01T15:07:58;7.30;99.90
20446;DHT22;10382;49.140;9.234;2023-02-01T15:10:27;7.30;99.90
20446;DHT22;10382;49.140;9.234;2023-02-01T15:12:56;7.30;99.90
20446;DHT22;10382;49.140;9.234;2023-02-01T15:15:24;7.30;99.90
20446;DHT22;10382;49.140;9.234;2023-02-01T15:17:54;7.40;99.90
20446;DHT22;10382;49.140;9.234;2023-02-01T15:20:23;7.30;99.90
20446;DHT22;10382;49.140;9.234;2023-02-01T15:22:55;7.30;99.90
20446;DHT22;10382;49.140;9.234;2023-02-01T15:25:24;7.30;99.90
20446;DHT22;10382;49.140;9.234;2023-02-01T15:27:52;7.30;99.90
20446;DHT22;10382;49.140;9.234;2023-02-01T15:30:22;7.30;99.90
20446;DHT22;10382;49.140;9.234;2023-02-01T15:32:50;7.30;99.90
20446;DHT22;10382;49.140;9.234;2023-02-01T15:35:39;7.30;99.90
20446;DHT22;10382;49.140;9.234;2023-02-01T15:38:42;7.30;99.90
20446;DHT22;10382;49.140;9.234;2023-02-01T15:41:12;7.30;99.90
20446;DHT22;10382;49.140;9.234;2023-02-01T15:43:42;7.30;99.90
20446;DHT22;10382;49.140;9.234;2023-02-01T15:46:12;7.30;99.90
20446;DHT22;10382;49.140;9.234;2023-02-01T15:48:44;7.30;99.90
20446;DHT22;10382;49.140;9.234;2023-02-01T15:51:16;7.30;99.90
20446;DHT22;10382;49.140;9.234;2023-02-01T15:53:52;7.30;99.90
20446;DHT22;10382;49.140;9.234;2023-02-01T15:56:24;7.30;99.90
20446;DHT22;10382;49.140;9.234;2023-02-01T15:58:55;7.30;99.90
20446;DHT22;10382;49.140;9.234;2023-02-01T16:01:24;7.30;99.90
20446;DHT22;10382;49.140;9.234;2023-02-01T16:04:03;7.30;99.90
20446;DHT22;10382;49.140;9.234;2023-02-01T16:06:32;7.30;99.90
20446;DHT22;10382;49.140;9.234;2023-02-01T16:09:10;7.30;99.90
20446;DHT22;10382;49.140;9.234;2023-02-01T16:11:47;7.30;99.90
20446;DHT22;10382;49.140;9.234;2023-02-01T16:14:14;7.30;99.90
20446;DHT22;10382;49.140;9.234;2023-02-01T16:16:41;7.20;99.90
20446;DHT22;10382;49.140;9.234;2023-02-01T16:19:08;7.20;99.90
20446;DHT22;10382;49.140;9.234;2023-02-01T16:21:37;7.20;99.90
20446;DHT22;10382;49.140;9.234;2023-02-01T16:24:04;7.20;99.90
20446;DHT22;10382;49.140;9.234;2023-02-01T16:26:32;7.10;99.90
20446;DHT22;10382;49.140;9.234;2023-02-01T16:29:00;7.10;99.90
20446;DHT22;10382;49.140;9.234;2023-02-01T16:31:32;7.00;99.90
20446;DHT22;10382;49.140;9.234;2023-02-01T16:34:00;7.00;99.90
20446;DHT22;10382;49.140;9.234;2023-02-01T16:36:27;7.00;99.90